sensor_id;sensor_type;location;lat;lon;timestamp;pressure;altitude;pressure_sealevel;temperature;humidity
4469;BME280;2247;42.666;23.292;2023-03-13T00:00:29;94591.94;;;7.56;39.73
4469;BME280;2247;42.666;23.292;2023-03-13T00:02:56;94592.75;;;7.57;39.72
4469;BME280;2247;42.666;23.292;2023-03-13T00:05:23;94591.47;;;7.59;39.56
4469;BME280;2247;42.666;23.292;2023-03-13T00:07:50;94599.00;;;7.56;39.64
4469;BME280;2247;42.666;23.292;2023-03-13T00:10:17;94592.53;;;7.63;39.63
4469;BME280;2247;42.666;23.292;2023-03-13T00:12:44;94591.75;;;7.63;39.86
4469;BME280;2247;42.666;23.292;2023-03-13T00:15:12;94601.75;;;7.66;39.78
4469;BME280;2247;42.666;23.292;2023-03-13T00:17:39;94601.34;;;7.52;39.79
4469;BME280;2247;42.666;23.292;2023-03-13T00:20:07;94597.38;;;7.49;40.05
4469;BME280;2247;42.666;23.292;2023-03-13T00:22:35;94605.25;;;7.49;40.02
4469;BME280;2247;42.666;23.292;2023-03-13T00:25:02;94609.84;;;7.37;40.06
4469;BME280;2247;42.666;23.292;2023-03-13T00:27:31;94610.44;;;7.44;40.15
4469;BME280;2247;42.666;23.292;2023-03-13T00:29:58;94595.78;;;7.48;40.19
4469;BME280;2247;42.666;23.292;2023-03-13T00:32:27;94618.31;;;7.44;40.25
4469;BME280;2247;42.666;23.292;2023-03-13T00:34:54;94610.13;;;7.41;40.26
4469;BME280;2247;42.666;23.292;2023-03-13T00:37:21;94614.88;;;7.44;40.36
4469;BME280;2247;42.666;23.292;2023-03-13T00:39:47;94613.00;;;7.39;40.27
4469;BME280;2247;42.666;23.292;2023-03-13T00:42:15;94614.09;;;7.43;40.41
4469;BME280;2247;42.666;23.292;2023-03-13T00:44:42;94621.41;;;7.41;40.45
4469;BME280;2247;42.666;23.292;2023-03-13T00:47:09;94613.78;;;7.40;40.44
4469;BME280;2247;42.666;23.292;2023-03-13T00:49:37;94604.97;;;7.24;40.72
4469;BME280;2247;42.666;23.292;2023-03-13T00:52:04;94613.91;;;7.28;40.58
4469;BME280;2247;42.666;23.292;2023-03-13T00:54:32;94613.13;;;7.28;40.60
4469;BME280;2247;42.666;23.292;2023-03-13T00:56:59;94611.00;;;7.25;40.51
4469;BME280;2247;42.666;23.292;2023-03-13T00:59:25;94613.06;;;7.23;40.45
4469;BME280;2247;42.666;23.292;2023-03-13T01:01:53;94613.06;;;7.23;40.61
4469;BME280;2247;42.666;23.292;2023-03-13T01:04:19;94610.69;;;7.21;40.79
4469;BME280;2247;42.666;23.292;2023-03-13T01:06:48;94592.22;;;7.11;41.05
4469;BME280;2247;42.666;23.292;2023-03-13T01:09:15;94611.66;;;7.15;41.21
4469;BME280;2247;42.666;23.292;2023-03-13T01:11:44;94606.47;;;7.20;41.19
4469;BME280;2247;42.666;23.292;2023-03-13T01:14:13;94600.00;;;7.28;41.15
4469;BME280;2247;42.666;23.292;2023-03-13T01:16:42;94599.50;;;7.26;41.11
4469;BME280;2247;42.666;23.292;2023-03-13T01:19:12;94603.63;;;7.22;41.05
4469;BME280;2247;42.666;23.292;2023-03-13T01:21:39;94605.25;;;7.28;40.88
4469;BME280;2247;42.666;23.292;2023-03-13T01:24:08;94607.50;;;7.19;41.21
4469;BME280;2247;42.666;23.292;2023-03-13T01:26:35;94612.47;;;7.16;41.51
4469;BME280;2247;42.666;23.292;2023-03-13T01:29:02;94607.94;;;7.11;41.38
4469;BME280;2247;42.666;23.292;2023-03-13T01:31:31;94620.34;;;6.99;41.80
4469;BME280;2247;42.666;23.292;2023-03-13T01:34:00;94593.47;;;6.87;41.72
4469;BME280;2247;42.666;23.292;2023-03-13T01:36:28;94594.50;;;6.86;41.63
4469;BME280;2247;42.666;23.292;2023-03-13T01:38:57;94617.41;;;7.12;41.55
4469;BME280;2247;42.666;23.292;2023-03-13T01:41:27;94622.19;;;7.20;41.63
4469;BME280;2247;42.666;23.292;2023-03-13T01:43:54;94628.00;;;7.22;41.67
4469;BME280;2247;42.666;23.292;2023-03-13T01:46:22;94630.13;;;7.25;41.35
4469;BME280;2247;42.666;23.292;2023-03-13T01:48:54;94642.31;;;7.15;41.92
4469;BME280;2247;42.666;23.292;2023-03-13T01:51:26;94625.19;;;7.07;41.98
4469;BME280;2247;42.666;23.292;2023-03-13T01:53:58;94623.06;;;7.04;41.98
4469;BME280;2247;42.666;23.292;2023-03-13T01:56:34;94626.16;;;7.01;42.06
4469;BME280;2247;42.666;23.292;2023-03-13T01:59:03;94618.84;;;7.03;41.84
4469;BME280;2247;42.666;23.292;2023-03-13T02:01:32;94632.97;;;7.02;41.86
4469;BME280;2247;42.666;23.292;2023-03-13T02:04:00;94632.75;;;7.03;41.75
4469;BME280;2247;42.666;23.292;2023-03-13T02:06:29;94630.34;;;7.02;41.81
4469;BME280;2247;42.666;23.292;2023-03-13T02:08:59;94625.25;;;7.12;41.42
4469;BME280;2247;42.666;23.292;2023-03-13T02:11:36;94597.94;;;7.08;41.33
4469;BME280;2247;42.666;23.292;2023-03-13T02:14:06;94631.16;;;7.24;40.91
4469;BME280;2247;42.666;23.292;2023-03-13T02:16:33;94637.38;;;7.18;41.06
4469;BME280;2247;42.666;23.292;2023-03-13T02:19:01;94633.13;;;7.12;41.27
4469;BME280;2247;42.666;23.292;2023-03-13T02:21:38;94638.50;;;7.05;41.47
4469;BME280;2247;42.666;23.292;2023-03-13T02:24:12;94640.41;;;7.10;41.50
4469;BME280;2247;42.666;23.292;2023-03-13T02:26:44;94646.75;;;7.14;41.33
4469;BME280;2247;42.666;23.292;2023-03-13T02:29:11;94646.47;;;7.10;41.34
4469;BME280;2247;42.666;23.292;2023-03-13T02:31:43;94647.78;;;7.13;41.43
4469;BME280;2247;42.666;23.292;2023-03-13T02:34:12;94655.66;;;7.13;41.50
4469;BME280;2247;42.666;23.292;2023-03-13T02:36:40;94660.34;;;7.11;41.49
4469;BME280;2247;42.666;23.292;2023-03-13T02:39:10;94663.50;;;7.13;41.55
4469;BME280;2247;42.666;23.292;2023-03-13T02:41:41;94668.22;;;7.11;41.64
4469;BME280;2247;42.666;23.292;2023-03-13T02:44:09;94679.16;;;7.08;41.84
4469;BME280;2247;42.666;23.292;2023-03-13T02:46:43;94692.03;;;7.09;42.03
4469;BME280;2247;42.666;23.292;2023-03-13T02:49:25;94688.38;;;7.10;42.21
4469;BME280;2247;42.666;23.292;2023-03-13T02:51:55;94690.75;;;7.12;42.14
4469;BME280;2247;42.666;23.292;2023-03-13T02:54:28;94687.59;;;7.10;42.00
4469;BME280;2247;42.666;23.292;2023-03-13T02:57:00;94698.34;;;7.13;42.04
4469;BME280;2247;42.666;23.292;2023-03-13T02:59:30;94689.19;;;7.11;41.83
4469;BME280;2247;42.666;23.292;2023-03-13T03:01:58;94686.28;;;7.12;41.90
4469;BME280;2247;42.666;23.292;2023-03-13T03:04:25;94685.75;;;7.10;42.06
4469;BME280;2247;42.666;23.292;2023-03-13T03:06:52;94688.84;;;7.07;42.56
4469;BME280;2247;42.666;23.292;2023-03-13T03:09:19;94685.19;;;7.08;42.44
4469;BME280;2247;42.666;23.292;2023-03-13T03:11:47;94683.41;;;7.31;42.06
4469;BME280;2247;42.666;23.292;2023-03-13T03:14:14;94681.16;;;7.39;41.85
4469;BME280;2247;42.666;23.292;2023-03-13T03:16:42;94693.22;;;7.40;41.25
4469;BME280;2247;42.666;23.292;2023-03-13T03:19:09;94697.38;;;7.20;42.02
4469;BME280;2247;42.666;23.292;2023-03-13T03:21:36;94705.03;;;7.21;42.19
4469;BME280;2247;42.666;23.292;2023-03-13T03:24:04;94722.44;;;7.10;42.50
4469;BME280;2247;42.666;23.292;2023-03-13T03:26:32;94696.97;;;6.72;43.13
4469;BME280;2247;42.666;23.292;2023-03-13T03:28:58;94727.91;;;6.92;43.31
4469;BME280;2247;42.666;23.292;2023-03-13T03:31:25;94724.38;;;6.82;43.58
4469;BME280;2247;42.666;23.292;2023-03-13T03:33:55;94730.06;;;6.79;43.60
4469;BME280;2247;42.666;23.292;2023-03-13T03:36:22;94727.44;;;6.79;43.54
4469;BME280;2247;42.666;23.292;2023-03-13T03:38:49;94728.63;;;6.88;43.29
4469;BME280;2247;42.666;23.292;2023-03-13T03:41:17;94732.69;;;6.95;43.17
4469;BME280;2247;42.666;23.292;2023-03-13T03:43:45;94732.78;;;6.84;43.26
4469;BME280;2247;42.666;23.292;2023-03-13T03:46:14;94745.94;;;6.89;43.54
4469;BME280;2247;42.666;23.292;2023-03-13T03:48:40;94757.75;;;6.75;43.70
4469;BME280;2247;42.666;23.292;2023-03-13T03:51:10;94759.19;;;6.65;43.33
4469;BME280;2247;42.666;23.292;2023-03-13T03:53:37;94750.69;;;6.58;43.40
4469;BME280;2247;42.666;23.292;2023-03-13T03:56:05;94750.69;;;6.42;44.02
4469;BME280;2247;42.666;23.292;2023-03-13T03:58:32;94751.06;;;6.50;44.15
4469;BME280;2247;42.666;23.292;2023-03-13T04:00:59;94762.94;;;6.69;43.89
4469;BME280;2247;42.666;23.292;2023-03-13T04:03:26;94770.25;;;6.84;43.11
4469;BME280;2247;42.666;23.292;2023-03-13T04:05:53;94770.22;;;6.67;43.35
4469;BME280;2247;42.666;23.292;2023-03-13T04:08:21;94773.72;;;6.73;43.80
4469;BME280;2247;42.666;23.292;2023-03-13T04:10:48;94777.19;;;6.62;44.11
4469;BME280;2247;42.666;23.292;2023-03-13T04:13:15;94785.00;;;6.45;44.79
4469;BME280;2247;42.666;23.292;2023-03-13T04:15:42;94786.03;;;6.44;44.71
4469;BME280;2247;42.666;23.292;2023-03-13T04:18:10;94796.13;;;6.52;44.80
4469;BME280;2247;42.666;23.292;2023-03-13T04:20:37;94791.91;;;6.51;44.69
4469;BME280;2247;42.666;23.292;2023-03-13T04:23:04;94801.38;;;6.52;45.13
4469;BME280;2247;42.666;23.292;2023-03-13T04:25:34;94804.84;;;6.41;45.57
4469;BME280;2247;42.666;23.292;2023-03-13T04:28:01;94800.78;;;5.93;46.67
4469;BME280;2247;42.666;23.292;2023-03-13T04:30:28;94804.66;;;5.68;46.94
4469;BME280;2247;42.666;23.292;2023-03-13T04:32:55;94811.41;;;5.52;47.22
4469;BME280;2247;42.666;23.292;2023-03-13T04:35:22;94819.34;;;5.45;47.41
4469;BME280;2247;42.666;23.292;2023-03-13T04:37:48;94812.88;;;5.48;47.32
4469;BME280;2247;42.666;23.292;2023-03-13T04:40:16;94831.72;;;5.50;47.16
4469;BME280;2247;42.666;23.292;2023-03-13T04:42:44;94838.56;;;5.51;47.32
4469;BME280;2247;42.666;23.292;2023-03-13T04:45:11;94845.13;;;5.65;47.22
4469;BME280;2247;42.666;23.292;2023-03-13T04:47:38;94809.44;;;5.47;47.07
4469;BME280;2247;42.666;23.292;2023-03-13T04:50:06;94843.44;;;5.71;47.20
4469;BME280;2247;42.666;23.292;2023-03-13T04:52:33;94853.84;;;5.82;47.17
4469;BME280;2247;42.666;23.292;2023-03-13T04:55:00;94819.06;;;5.82;47.15
4469;BME280;2247;42.666;23.292;2023-03-13T04:57:28;94829.41;;;6.12;46.85
4469;BME280;2247;42.666;23.292;2023-03-13T04:59:56;94845.34;;;6.39;46.59
4469;BME280;2247;42.666;23.292;2023-03-13T05:02:27;94838.66;;;6.59;46.37
4469;BME280;2247;42.666;23.292;2023-03-13T05:05:06;94839.00;;;6.63;46.27
4469;BME280;2247;42.666;23.292;2023-03-13T05:07:49;94805.88;;;6.40;46.25
4469;BME280;2247;42.666;23.292;2023-03-13T05:21:20;94858.19;;;7.80;44.06
4469;BME280;2247;42.666;23.292;2023-03-13T05:26:26;94861.63;;;8.24;42.89
4469;BME280;2247;42.666;23.292;2023-03-13T05:29:06;94862.56;;;8.57;42.29
4469;BME280;2247;42.666;23.292;2023-03-13T05:31:34;94856.75;;;8.77;42.41
4469;BME280;2247;42.666;23.292;2023-03-13T05:34:11;94865.06;;;8.95;41.43
4469;BME280;2247;42.666;23.292;2023-03-13T05:36:57;94863.69;;;9.20;40.65
4469;BME280;2247;42.666;23.292;2023-03-13T05:39:24;94855.28;;;9.18;40.09
4469;BME280;2247;42.666;23.292;2023-03-13T05:44:27;94875.75;;;9.47;40.23
4469;BME280;2247;42.666;23.292;2023-03-13T05:46:54;94872.66;;;9.56;40.15
4469;BME280;2247;42.666;23.292;2023-03-13T05:49:22;94865.41;;;9.68;39.86
4469;BME280;2247;42.666;23.292;2023-03-13T05:51:50;94853.19;;;9.88;39.41
4469;BME280;2247;42.666;23.292;2023-03-13T05:56:54;94890.22;;;10.19;38.92
4469;BME280;2247;42.666;23.292;2023-03-13T05:59:21;94894.00;;;10.38;38.16
4469;BME280;2247;42.666;23.292;2023-03-13T06:04:27;94889.81;;;10.42;37.61
4469;BME280;2247;42.666;23.292;2023-03-13T06:14:43;94886.88;;;11.06;36.87
4469;BME280;2247;42.666;23.292;2023-03-13T06:19:46;94887.44;;;11.54;36.28
4469;BME280;2247;42.666;23.292;2023-03-13T06:22:13;94891.38;;;11.71;35.99
4469;BME280;2247;42.666;23.292;2023-03-13T06:27:16;94894.81;;;11.97;35.59
4469;BME280;2247;42.666;23.292;2023-03-13T07:32:16;94859.25;;;12.54;35.58
4469;BME280;2247;42.666;23.292;2023-03-13T07:34:44;94860.31;;;12.58;33.32
4469;BME280;2247;42.666;23.292;2023-03-13T07:37:11;94870.59;;;12.65;32.95
4469;BME280;2247;42.666;23.292;2023-03-13T07:39:38;94871.34;;;12.75;31.26
4469;BME280;2247;42.666;23.292;2023-03-13T08:15:47;94849.28;;;12.41;33.10
4469;BME280;2247;42.666;23.292;2023-03-13T08:31:28;94871.19;;;12.51;32.84
4469;BME280;2247;42.666;23.292;2023-03-13T08:49:29;94839.31;;;12.22;32.56
4469;BME280;2247;42.666;23.292;2023-03-13T13:52:36;94588.22;;;13.86;31.83
4469;BME280;2247;42.666;23.292;2023-03-13T15:40:24;94561.16;;;13.89;30.81
4469;BME280;2247;42.666;23.292;2023-03-13T21:38:17;94609.16;;;9.89;38.01
4469;BME280;2247;42.666;23.292;2023-03-13T21:40:44;94603.13;;;9.94;38.40
4469;BME280;2247;42.666;23.292;2023-03-13T21:43:11;94626.63;;;10.20;38.19
4469;BME280;2247;42.666;23.292;2023-03-13T21:45:38;94614.72;;;10.03;39.15
4469;BME280;2247;42.666;23.292;2023-03-13T21:48:06;94620.00;;;10.13;38.93
4469;BME280;2247;42.666;23.292;2023-03-13T21:50:35;94614.72;;;9.93;39.56
4469;BME280;2247;42.666;23.292;2023-03-13T21:53:08;94608.41;;;9.99;39.54
4469;BME280;2247;42.666;23.292;2023-03-13T21:58:16;94615.78;;;10.02;39.63
4469;BME280;2247;42.666;23.292;2023-03-13T22:00:46;94601.56;;;9.87;39.71
4469;BME280;2247;42.666;23.292;2023-03-13T22:03:16;94604.97;;;9.98;39.39
4469;BME280;2247;42.666;23.292;2023-03-13T22:05:45;94600.00;;;10.02;39.18
4469;BME280;2247;42.666;23.292;2023-03-13T22:08:13;94604.19;;;10.03;38.88
4469;BME280;2247;42.666;23.292;2023-03-13T22:10:46;94617.09;;;9.94;39.30
4469;BME280;2247;42.666;23.292;2023-03-13T22:13:20;94603.66;;;9.85;39.56
4469;BME280;2247;42.666;23.292;2023-03-13T22:15:55;94604.44;;;9.86;39.05
4469;BME280;2247;42.666;23.292;2023-03-13T22:18:23;94613.09;;;9.71;39.76
4469;BME280;2247;42.666;23.292;2023-03-13T22:21:04;94613.63;;;9.73;40.31
4469;BME280;2247;42.666;23.292;2023-03-13T22:23:36;94613.09;;;9.71;40.16
4469;BME280;2247;42.666;23.292;2023-03-13T22:26:03;94588.31;;;9.62;40.35
4469;BME280;2247;42.666;23.292;2023-03-13T22:28:37;94603.63;;;9.75;40.76
4469;BME280;2247;42.666;23.292;2023-03-13T22:31:08;94600.22;;;9.80;40.86
4469;BME280;2247;42.666;23.292;2023-03-13T22:33:36;94602.03;;;9.69;41.18
4469;BME280;2247;42.666;23.292;2023-03-13T22:36:04;94600.22;;;9.75;41.14
4469;BME280;2247;42.666;23.292;2023-03-13T22:38:32;94599.44;;;9.74;41.01
4469;BME280;2247;42.666;23.292;2023-03-13T22:41:05;94601.25;;;9.74;40.83
4469;BME280;2247;42.666;23.292;2023-03-13T22:43:35;94598.34;;;9.70;41.10
4469;BME280;2247;42.666;23.292;2023-03-13T22:46:03;94599.38;;;9.69;41.06
4469;BME280;2247;42.666;23.292;2023-03-13T22:48:32;94592.03;;;9.71;40.79
4469;BME280;2247;42.666;23.292;2023-03-13T22:51:02;94579.91;;;9.60;40.86
4469;BME280;2247;42.666;23.292;2023-03-13T22:53:33;94596.00;;;9.74;40.66
4469;BME280;2247;42.666;23.292;2023-03-13T22:56:01;94599.69;;;9.68;40.67
4469;BME280;2247;42.666;23.292;2023-03-13T22:58:29;94599.88;;;9.56;41.03
4469;BME280;2247;42.666;23.292;2023-03-13T23:01:03;94592.22;;;9.44;40.87
4469;BME280;2247;42.666;23.292;2023-03-13T23:03:31;94586.97;;;9.44;40.97
4469;BME280;2247;42.666;23.292;2023-03-13T23:05:58;94598.59;;;9.59;40.93
4469;BME280;2247;42.666;23.292;2023-03-13T23:08:26;94593.34;;;9.64;40.96
4469;BME280;2247;42.666;23.292;2023-03-13T23:10:54;94597.25;;;9.61;40.96
4469;BME280;2247;42.666;23.292;2023-03-13T23:13:22;94595.41;;;9.57;40.91
4469;BME280;2247;42.666;23.292;2023-03-13T23:15:49;94602.31;;;9.73;40.47
4469;BME280;2247;42.666;23.292;2023-03-13T23:18:17;94605.19;;;9.71;40.37
4469;BME280;2247;42.666;23.292;2023-03-13T23:20:44;94599.13;;;9.66;40.56
4469;BME280;2247;42.666;23.292;2023-03-13T23:23:11;94614.13;;;9.65;40.90
4469;BME280;2247;42.666;23.292;2023-03-13T23:25:37;94612.53;;;9.64;40.94
4469;BME280;2247;42.666;23.292;2023-03-13T23:28:04;94607.81;;;9.66;40.97
4469;BME280;2247;42.666;23.292;2023-03-13T23:30:32;94606.47;;;9.54;41.29
4469;BME280;2247;42.666;23.292;2023-03-13T23:32:58;94605.09;;;9.41;41.38
4469;BME280;2247;42.666;23.292;2023-03-13T23:35:27;94608.25;;;9.38;41.54
4469;BME280;2247;42.666;23.292;2023-03-13T23:37:54;94606.09;;;9.30;41.58
4469;BME280;2247;42.666;23.292;2023-03-13T23:40:21;94603.72;;;9.28;41.70
4469;BME280;2247;42.666;23.292;2023-03-13T23:42:50;94618.19;;;9.26;41.59
4469;BME280;2247;42.666;23.292;2023-03-13T23:45:17;94597.91;;;9.21;41.59
4469;BME280;2247;42.666;23.292;2023-03-13T23:47:44;94606.09;;;9.30;41.60
4469;BME280;2247;42.666;23.292;2023-03-13T23:50:14;94600.53;;;9.21;42.03
4469;BME280;2247;42.666;23.292;2023-03-13T23:52:44;94596.88;;;9.22;41.82
4469;BME280;2247;42.666;23.292;2023-03-13T23:55:11;94593.19;;;9.18;41.88
4469;BME280;2247;42.666;23.292;2023-03-13T23:57:38;94587.66;;;9.20;42.12
